createdAt,value
2022-11-18T00:00:59.526Z,0.00
2022-11-18T00:01:59.554Z,0.00
2022-11-18T00:02:59.595Z,0.00
2022-11-18T00:03:59.501Z,0.00
2022-11-18T00:04:59.496Z,0.00
2022-11-18T00:05:59.476Z,0.00
2022-11-18T00:06:59.602Z,0.00
2022-11-18T00:07:59.447Z,0.00
2022-11-18T00:08:59.454Z,0.00
2022-11-18T00:09:59.447Z,0.00
2022-11-18T00:10:59.437Z,0.00
2022-11-18T00:11:59.429Z,0.00
2022-11-18T00:12:59.425Z,0.00
2022-11-18T00:13:59.389Z,0.00
2022-11-18T00:14:59.388Z,0.00
2022-11-18T00:15:59.358Z,0.00
2022-11-18T00:16:59.359Z,0.00
2022-11-18T00:17:59.362Z,0.00
2022-11-18T00:18:59.329Z,0.00
2022-11-18T00:19:59.338Z,0.00
2022-11-18T00:20:59.314Z,0.00
2022-11-18T00:21:59.301Z,0.00
2022-11-18T00:22:59.286Z,0.00
2022-11-18T00:23:59.282Z,0.00
2022-11-18T00:24:59.288Z,0.00
2022-11-18T00:25:59.276Z,0.00
2022-11-18T00:26:59.242Z,0.00
2022-11-18T00:27:59.237Z,0.00
2022-11-18T00:28:59.220Z,0.00
2022-11-18T00:29:59.222Z,0.00
2022-11-18T00:30:59.210Z,0.00
2022-11-18T00:31:59.191Z,0.00
2022-11-18T00:32:59.182Z,0.00
2022-11-18T00:33:59.170Z,0.00
2022-11-18T00:34:59.153Z,0.00
2022-11-18T00:35:59.160Z,0.00
2022-11-18T00:36:59.131Z,0.00
2022-11-18T00:37:59.132Z,0.00
2022-11-18T00:38:59.112Z,0.00
2022-11-18T00:39:59.103Z,0.00
2022-11-18T00:40:59.103Z,0.00
2022-11-18T00:41:59.088Z,0.00
2022-11-18T00:42:59.071Z,0.00
2022-11-18T00:43:59.066Z,0.00
2022-11-18T00:44:59.052Z,0.00
2022-11-18T00:45:59.043Z,0.00
2022-11-18T00:46:59.022Z,0.00
2022-11-18T00:47:59.023Z,0.00
2022-11-18T00:48:59.008Z,0.00
2022-11-18T00:49:59.002Z,0.00
2022-11-18T00:50:58.995Z,0.00
2022-11-18T00:51:58.964Z,0.00
2022-11-18T00:52:58.954Z,0.00
2022-11-18T00:53:58.963Z,0.00
2022-11-18T00:54:58.936Z,0.00
2022-11-18T00:55:59.029Z,0.00
2022-11-18T00:56:58.921Z,0.00
2022-11-18T00:57:58.909Z,0.00
2022-11-18T00:58:58.896Z,0.00
2022-11-18T00:59:58.888Z,0.00
2022-11-18T01:00:58.934Z,0.00
2022-11-18T01:01:58.867Z,0.00
2022-11-18T01:02:58.846Z,0.00
2022-11-18T01:03:58.837Z,0.00
2022-11-18T01:04:58.830Z,0.00
2022-11-18T01:05:58.988Z,0.00
2022-11-18T01:06:58.824Z,0.00
2022-11-18T01:07:58.797Z,0.00
2022-11-18T01:08:58.790Z,0.00
2022-11-18T01:09:58.780Z,0.00
2022-11-18T01:10:58.768Z,0.00
2022-11-18T01:11:58.764Z,0.00
2022-11-18T01:12:58.738Z,0.00
2022-11-18T01:13:58.739Z,0.00
2022-11-18T01:14:58.720Z,0.00
2022-11-18T01:15:58.718Z,0.00
2022-11-18T01:16:58.701Z,0.00
2022-11-18T01:17:58.692Z,0.00
2022-11-18T01:18:58.670Z,0.00
2022-11-18T01:19:58.668Z,0.00
2022-11-18T01:20:58.668Z,0.00
2022-11-18T01:21:58.659Z,0.00
2022-11-18T01:22:58.630Z,0.00
2022-11-18T01:23:58.619Z,0.00
2022-11-18T01:24:58.609Z,0.00
2022-11-18T01:25:58.689Z,0.00
2022-11-18T01:26:58.579Z,0.00
2022-11-18T01:27:58.579Z,0.00
2022-11-18T01:28:58.559Z,0.00
2022-11-18T01:29:58.603Z,0.00
2022-11-18T01:30:58.543Z,0.00
2022-11-18T01:32:59.540Z,0.00
2022-11-18T01:33:58.510Z,0.00
2022-11-18T01:34:58.523Z,0.00
2022-11-18T01:35:58.600Z,0.00
2022-11-18T01:36:58.471Z,0.00
2022-11-18T01:37:58.472Z,0.00
2022-11-18T01:38:58.451Z,0.00
2022-11-18T01:39:58.443Z,0.00
2022-11-18T01:40:58.443Z,0.00
2022-11-18T01:41:58.432Z,0.00
2022-11-18T01:42:58.404Z,0.00
2022-11-18T01:43:58.403Z,0.00
2022-11-18T01:44:58.399Z,0.00
2022-11-18T01:45:58.412Z,0.00
2022-11-18T01:46:58.501Z,0.00
2022-11-18T01:47:58.356Z,0.00
2022-11-18T01:48:58.335Z,0.00
2022-11-18T01:49:58.334Z,0.00
2022-11-18T01:50:58.333Z,0.00
2022-11-18T01:51:58.304Z,0.00
2022-11-18T01:52:58.303Z,0.00
2022-11-18T01:53:58.304Z,0.00
2022-11-18T01:54:58.365Z,0.00
2022-11-18T01:55:58.274Z,0.00
2022-11-18T01:56:58.489Z,0.00
2022-11-18T01:57:58.245Z,0.00
2022-11-18T01:58:58.236Z,0.00
2022-11-18T01:59:58.217Z,0.00
2022-11-18T02:00:58.272Z,0.00
2022-11-18T02:01:59.817Z,0.00
2022-11-18T02:02:58.256Z,0.00
2022-11-18T02:03:58.186Z,0.00
2022-11-18T02:04:58.199Z,0.00
2022-11-18T02:05:58.177Z,0.00
2022-11-18T02:06:58.174Z,0.00
2022-11-18T02:07:58.126Z,0.00
2022-11-18T02:08:58.136Z,0.00
2022-11-18T02:09:58.116Z,0.00
2022-11-18T02:10:58.138Z,0.00
2022-11-18T02:11:58.176Z,0.00
2022-11-18T02:12:58.089Z,0.00
2022-11-18T02:13:58.166Z,0.00
2022-11-18T02:14:58.059Z,0.00
2022-11-18T02:15:58.046Z,0.00
2022-11-18T02:16:58.057Z,0.00
2022-11-18T02:17:58.066Z,0.00
2022-11-18T02:18:58.026Z,0.00
2022-11-18T02:19:57.999Z,0.00
2022-11-18T02:20:58.000Z,0.00
2022-11-18T02:21:58.029Z,0.00
2022-11-18T02:22:57.971Z,0.00
2022-11-18T02:23:57.958Z,0.00
2022-11-18T02:24:57.950Z,0.00
2022-11-18T02:25:57.940Z,0.00
2022-11-18T02:26:57.941Z,0.00
2022-11-18T02:27:57.911Z,0.00
2022-11-18T02:28:57.930Z,0.00
2022-11-18T02:29:57.939Z,0.00
2022-11-18T02:30:57.880Z,0.00
2022-11-18T02:31:57.912Z,0.00
2022-11-18T02:32:57.861Z,0.00
2022-11-18T02:33:57.841Z,0.00
2022-11-18T02:34:57.843Z,0.00
2022-11-18T02:35:57.823Z,0.00
2022-11-18T02:36:57.823Z,0.00
2022-11-18T02:37:57.811Z,0.00
2022-11-18T02:38:57.794Z,0.00
2022-11-18T02:39:57.785Z,0.00
2022-11-18T02:40:57.784Z,0.00
2022-11-18T02:41:57.770Z,0.00
2022-11-18T02:42:57.747Z,0.00
2022-11-18T02:43:57.735Z,0.00
2022-11-18T02:44:57.729Z,0.00
2022-11-18T02:45:57.714Z,0.00
2022-11-18T02:46:57.723Z,0.00
2022-11-18T02:47:57.688Z,0.00
2022-11-18T02:48:57.682Z,0.00
2022-11-18T02:49:57.662Z,0.00
2022-11-18T02:50:57.664Z,0.00
2022-11-18T02:51:57.652Z,0.00
2022-11-18T02:52:57.654Z,0.00
2022-11-18T02:53:57.647Z,0.00
2022-11-18T02:54:57.614Z,0.00
2022-11-18T02:55:57.605Z,0.00
2022-11-18T08:10:00.387Z,180.00
2022-11-18T08:11:00.382Z,191.25
2022-11-18T08:12:00.342Z,202.50
2022-11-18T08:13:00.350Z,208.12
2022-11-18T08:14:00.347Z,208.12
2022-11-18T08:15:00.383Z,213.75
2022-11-18T08:16:00.310Z,213.75
2022-11-18T08:17:00.311Z,213.75
2022-11-18T08:18:00.292Z,219.38
2022-11-18T08:19:00.318Z,225.00
2022-11-18T08:20:00.285Z,225.00
2022-11-18T08:21:00.251Z,225.00
2022-11-18T08:22:00.235Z,230.62
2022-11-18T08:23:00.232Z,230.62
2022-11-18T08:24:00.223Z,236.25
2022-11-18T08:25:00.231Z,236.25
2022-11-18T08:26:00.193Z,236.25
2022-11-18T08:27:00.202Z,230.62
2022-11-18T08:28:00.172Z,225.00
2022-11-18T08:29:00.214Z,219.38
2022-11-18T08:30:00.163Z,213.75
2022-11-18T08:31:00.143Z,213.75
2022-11-18T08:32:00.133Z,213.75
2022-11-18T08:33:00.153Z,219.38
2022-11-18T08:34:00.114Z,219.38
2022-11-18T08:35:00.134Z,225.00
2022-11-18T08:36:00.095Z,230.62
2022-11-18T08:37:00.085Z,236.25
2022-11-18T08:38:00.094Z,241.88
2022-11-18T08:39:00.066Z,253.12
2022-11-18T08:40:00.078Z,264.38
2022-11-18T08:41:00.036Z,275.62
2022-11-18T08:42:00.031Z,292.50
2022-11-18T08:43:00.006Z,303.75
2022-11-18T08:44:00.025Z,320.62
2022-11-18T08:45:00.005Z,331.88
2022-11-18T08:45:59.974Z,337.50
2022-11-18T08:47:00.032Z,343.12
2022-11-18T08:47:59.959Z,343.12
2022-11-18T08:48:59.948Z,348.75
2022-11-18T08:49:59.990Z,348.75
2022-11-18T08:50:59.928Z,354.38
2022-11-18T08:51:59.908Z,365.62
2022-11-18T08:52:59.929Z,382.50
2022-11-18T08:53:59.887Z,399.38
2022-11-18T08:54:59.888Z,421.88
2022-11-18T08:55:59.877Z,438.75
2022-11-18T08:56:59.888Z,444.38
2022-11-18T08:57:59.840Z,461.25
2022-11-18T08:58:59.839Z,466.88
2022-11-18T08:59:59.962Z,483.75
2022-11-18T09:00:59.810Z,489.38
2022-11-18T09:01:59.904Z,489.38
2022-11-18T09:02:59.799Z,483.75
2022-11-18T09:03:59.771Z,483.75
2022-11-18T09:04:59.781Z,495.00
2022-11-18T09:05:59.762Z,500.62
2022-11-18T09:06:59.831Z,489.38
2022-11-18T09:07:59.764Z,478.12
2022-11-18T09:09:05.014Z,472.50
2022-11-18T09:10:00.808Z,450.00
2022-11-18T09:10:59.703Z,438.75
2022-11-18T09:11:59.682Z,421.88
2022-11-18T09:13:18.435Z,416.25
2022-11-18T09:15:16.487Z,416.25
2022-11-18T09:16:00.642Z,410.62
2022-11-18T09:16:59.703Z,416.25
2022-11-18T09:17:59.625Z,410.62
2022-11-18T09:19:04.943Z,405.00
2022-11-18T09:20:00.700Z,405.00
2022-11-18T09:20:59.594Z,405.00
2022-11-18T09:21:59.575Z,410.62
2022-11-18T09:22:59.576Z,416.25
2022-11-18T09:23:59.555Z,427.50
2022-11-18T09:24:59.546Z,433.12
2022-11-18T09:25:59.620Z,444.38
2022-11-18T09:26:59.539Z,455.62
2022-11-18T09:27:59.506Z,461.25
2022-11-18T09:28:59.541Z,466.88
2022-11-18T09:29:59.562Z,466.88
2022-11-18T09:30:59.512Z,466.88
2022-11-18T09:31:59.468Z,478.12
2022-11-18T09:32:59.458Z,478.12
2022-11-18T09:33:59.438Z,478.12
2022-11-18T09:34:59.438Z,472.50
2022-11-18T09:35:59.436Z,472.50
2022-11-18T09:36:59.418Z,472.50
2022-11-18T09:37:59.587Z,472.50
2022-11-18T09:38:59.482Z,461.25
2022-11-18T09:39:59.437Z,450.00
2022-11-18T09:40:59.379Z,444.38
2022-11-18T09:41:59.360Z,438.75
2022-11-18T09:42:59.349Z,438.75
2022-11-18T09:43:59.338Z,438.75
2022-11-18T09:44:59.341Z,438.75
2022-11-18T09:45:59.319Z,438.75
2022-11-18T09:46:59.309Z,438.75
2022-11-18T09:47:59.292Z,444.38
2022-11-18T09:48:59.303Z,450.00
2022-11-18T09:49:59.272Z,455.62
2022-11-18T09:50:59.300Z,461.25
2022-11-18T09:51:59.252Z,461.25
2022-11-18T09:52:59.246Z,461.25
2022-11-18T09:53:59.377Z,461.25
2022-11-18T09:54:59.223Z,461.25
2022-11-18T09:55:59.298Z,461.25
2022-11-18T09:56:59.226Z,461.25
2022-11-18T09:57:59.203Z,472.50
2022-11-18T09:58:59.189Z,489.38
2022-11-18T09:59:59.203Z,562.50
2022-11-18T10:00:59.160Z,691.88
2022-11-18T10:01:59.304Z,1091.25
2022-11-18T10:02:59.135Z,1192.50
2022-11-18T10:03:59.115Z,1518.75
2022-11-18T10:04:59.106Z,1681.88
2022-11-18T10:05:59.155Z,1327.50
2022-11-18T10:06:59.117Z,843.75
2022-11-18T10:07:59.076Z,601.88
2022-11-18T10:08:59.066Z,540.00
2022-11-18T10:09:59.071Z,742.50
2022-11-18T10:10:59.100Z,1153.12
2022-11-18T10:11:59.192Z,1091.25
2022-11-18T10:12:59.031Z,950.62
2022-11-18T10:13:59.005Z,1119.38
2022-11-18T10:14:58.998Z,1288.12
2022-11-18T10:15:58.989Z,1996.88
2022-11-18T10:16:58.998Z,2542.50
2022-11-18T10:17:58.968Z,2542.50
2022-11-18T10:19:00.584Z,2536.88
2022-11-18T10:19:59.017Z,2576.25
2022-11-18T10:20:58.938Z,2773.12
2022-11-18T10:21:58.923Z,2750.62
2022-11-18T10:22:58.911Z,2581.88
2022-11-18T10:23:59.023Z,1918.12
2022-11-18T10:24:58.881Z,1406.25
2022-11-18T10:25:58.902Z,967.50
2022-11-18T10:26:58.870Z,618.75
2022-11-18T10:27:58.912Z,748.12
2022-11-18T10:28:59.331Z,1530.00
2022-11-18T10:29:58.885Z,2638.12
2022-11-18T10:30:58.834Z,2992.50
2022-11-18T10:31:59.680Z,2885.62
2022-11-18T10:32:58.803Z,2835.00
2022-11-18T10:33:58.784Z,2891.25
2022-11-18T10:34:58.792Z,2857.50
2022-11-18T10:35:58.776Z,2728.12
2022-11-18T10:36:58.746Z,2745.00
2022-11-18T10:38:07.859Z,2868.75
2022-11-18T10:38:59.737Z,3020.62
2022-11-18T10:39:58.716Z,2925.00
2022-11-18T10:40:58.754Z,2851.88
2022-11-18T10:41:58.697Z,3121.88
2022-11-18T10:42:58.691Z,2908.12
2022-11-18T10:43:58.678Z,2773.12
2022-11-18T10:44:58.678Z,2863.12
2022-11-18T10:45:58.712Z,2857.50
2022-11-18T10:46:58.649Z,2823.75
2022-11-18T10:47:58.662Z,2750.62
2022-11-18T10:48:58.630Z,2694.38
2022-11-18T10:49:58.612Z,2705.62
2022-11-18T10:50:58.622Z,3009.38
2022-11-18T10:51:58.591Z,3138.75
2022-11-18T10:52:58.695Z,2992.50
2022-11-18T10:53:58.565Z,2958.75
2022-11-18T10:54:58.573Z,2958.75
2022-11-18T10:55:58.571Z,523.12
2022-11-18T10:56:58.831Z,2913.75
2022-11-18T10:57:58.525Z,3071.25
2022-11-18T10:58:58.546Z,2992.50
2022-11-18T10:59:58.569Z,2660.62
2022-11-18T11:00:58.507Z,2632.50
2022-11-18T11:01:58.575Z,2587.50
2022-11-18T11:02:58.477Z,2553.75
2022-11-18T11:03:58.460Z,2542.50
2022-11-18T11:04:58.460Z,2671.88
2022-11-18T11:05:58.458Z,2823.75
2022-11-18T11:06:58.466Z,2553.75
2022-11-18T11:08:21.155Z,2261.25
2022-11-18T11:08:59.422Z,2497.50
2022-11-18T11:09:58.400Z,3054.38
2022-11-18T11:10:58.416Z,3335.62
2022-11-18T11:11:58.383Z,3240.00
2022-11-18T11:12:58.362Z,3166.88
2022-11-18T11:13:58.362Z,3166.88
2022-11-18T11:14:58.364Z,3166.88
2022-11-18T11:15:58.345Z,3172.50
2022-11-18T11:16:58.355Z,3099.38
2022-11-18T11:17:58.364Z,3088.12
2022-11-18T11:18:58.303Z,3127.50
2022-11-18T11:19:58.296Z,3251.25
2022-11-18T11:20:58.294Z,3150.00
2022-11-18T11:21:58.274Z,2981.25
2022-11-18T11:22:58.258Z,3015.00
2022-11-18T11:23:58.255Z,3093.75
2022-11-18T11:24:58.269Z,3161.25
2022-11-18T11:28:15.002Z,3026.25
2022-11-18T11:28:59.203Z,3155.62
2022-11-18T11:29:58.191Z,2143.12
2022-11-18T11:30:58.181Z,1130.62
2022-11-18T11:31:58.164Z,1530.00
2022-11-18T11:32:58.152Z,1276.88
2022-11-18T11:33:58.144Z,1845.00
2022-11-18T11:34:58.157Z,2345.62
2022-11-18T11:35:58.136Z,2238.75
2022-11-18T11:36:58.116Z,1828.12
2022-11-18T11:37:58.104Z,2058.75
2022-11-18T11:39:04.052Z,2064.38
2022-11-18T11:39:59.077Z,2221.88
2022-11-18T11:40:58.078Z,2261.25
2022-11-18T11:41:58.074Z,2576.25
2022-11-18T11:42:58.048Z,2756.25
2022-11-18T11:43:58.083Z,2925.00
2022-11-18T11:44:58.038Z,2047.50
2022-11-18T11:45:58.019Z,1636.88
2022-11-18T11:46:58.022Z,1648.12
2022-11-18T11:47:58.000Z,2278.12
2022-11-18T11:48:57.982Z,2525.62
2022-11-18T11:49:57.981Z,1428.75
2022-11-18T11:51:03.936Z,2643.75
2022-11-18T11:51:58.961Z,1006.88
2022-11-18T11:52:57.943Z,1006.88
2022-11-18T11:53:57.953Z,1631.25
2022-11-18T11:54:57.913Z,1507.50
2022-11-18T11:55:57.915Z,2002.50
2022-11-18T11:56:57.953Z,1811.25
2022-11-18T11:57:57.886Z,2075.62
2022-11-18T11:58:57.874Z,2064.38
2022-11-18T11:59:57.866Z,1687.50
2022-11-18T12:00:57.849Z,1552.50
2022-11-18T12:01:57.858Z,2176.88
2022-11-18T12:02:57.903Z,2446.88
2022-11-18T12:03:57.817Z,793.12
2022-11-18T12:04:57.847Z,1029.38
2022-11-18T12:05:57.797Z,1530.00
2022-11-18T12:06:57.844Z,939.38
2022-11-18T12:07:57.769Z,714.38
2022-11-18T12:08:57.778Z,1215.00
2022-11-18T12:09:57.751Z,849.38
2022-11-18T12:10:57.751Z,894.38
2022-11-18T12:11:57.751Z,860.62
2022-11-18T12:12:57.722Z,703.12
2022-11-18T12:13:57.712Z,860.62
2022-11-18T12:14:57.710Z,928.12
2022-11-18T12:15:57.691Z,618.75
2022-11-18T12:16:57.695Z,618.75
2022-11-18T12:17:57.666Z,607.50
2022-11-18T12:18:57.655Z,607.50
2022-11-18T12:19:57.644Z,607.50
2022-11-18T12:20:57.655Z,613.12
2022-11-18T12:21:57.657Z,601.88
2022-11-18T12:22:57.635Z,590.62
2022-11-18T12:23:57.605Z,573.75
2022-11-18T12:24:57.596Z,556.88
2022-11-18T12:25:57.578Z,540.00
2022-11-18T12:26:57.645Z,528.75
2022-11-18T12:27:58.852Z,517.50
2022-11-18T12:28:57.559Z,523.12
2022-11-18T12:29:57.535Z,540.00
2022-11-18T12:30:57.528Z,568.12
2022-11-18T12:31:57.520Z,601.88
2022-11-18T12:32:57.511Z,624.38
2022-11-18T12:33:57.493Z,680.62
2022-11-18T12:34:57.480Z,900.00
2022-11-18T12:35:57.471Z,1046.25
2022-11-18T12:36:57.660Z,888.75
2022-11-18T12:37:57.453Z,798.75
2022-11-18T12:38:57.442Z,675.00
2022-11-18T12:39:57.437Z,731.25
2022-11-18T12:40:57.443Z,838.12
2022-11-18T12:41:57.423Z,720.00
2022-11-18T12:42:57.414Z,663.75
2022-11-18T12:43:57.407Z,635.62
2022-11-18T12:44:57.585Z,624.38
2022-11-18T12:45:57.373Z,618.75
2022-11-18T12:46:57.372Z,624.38
2022-11-18T12:47:57.346Z,658.12
2022-11-18T12:48:57.335Z,1175.62
2022-11-18T12:49:57.334Z,956.25
2022-11-18T12:50:57.414Z,736.88
2022-11-18T12:51:57.315Z,849.38
2022-11-18T12:52:57.513Z,939.38
2022-11-18T12:53:57.277Z,1096.88
2022-11-18T12:54:57.386Z,2716.88
2022-11-18T12:55:57.285Z,2778.75
2022-11-18T12:56:57.267Z,2795.62
2022-11-18T12:57:57.235Z,2790.00
2022-11-18T12:58:57.232Z,2778.75
2022-11-18T12:59:57.216Z,2705.62
2022-11-18T13:00:57.354Z,2688.75
2022-11-18T13:01:57.218Z,2671.88
2022-11-18T13:02:57.307Z,2598.75
2022-11-18T13:03:57.161Z,2548.12
2022-11-18T13:04:57.162Z,2458.12
2022-11-18T13:05:57.163Z,2390.62
2022-11-18T13:06:57.180Z,2373.75
2022-11-18T13:07:57.144Z,2300.62
2022-11-18T13:08:57.122Z,2154.38
2022-11-18T13:09:57.101Z,2250.00
2022-11-18T13:10:57.094Z,1681.88
2022-11-18T13:11:57.142Z,1130.62
2022-11-18T13:12:57.092Z,1046.25
2022-11-18T13:13:57.065Z,900.00
2022-11-18T13:14:57.055Z,1018.12
2022-11-18T13:15:57.046Z,1400.62
2022-11-18T13:16:57.035Z,1136.25
2022-11-18T13:17:57.025Z,888.75
2022-11-18T13:18:57.006Z,855.00
2022-11-18T13:19:57.017Z,1215.00
2022-11-18T13:20:56.997Z,1215.00
2022-11-18T13:21:56.966Z,1288.12
2022-11-18T13:22:56.978Z,1530.00
2022-11-18T13:24:00.616Z,1710.00
2022-11-18T13:24:56.949Z,1625.62
2022-11-18T13:25:56.939Z,1794.38
2022-11-18T13:26:56.929Z,1794.38
2022-11-18T13:27:56.913Z,1985.62
2022-11-18T13:28:56.899Z,1951.88
2022-11-18T13:29:56.888Z,2581.88
2022-11-18T13:30:56.872Z,2823.75
2022-11-18T13:31:56.861Z,2278.12
2022-11-18T13:32:56.862Z,2205.00
2022-11-18T13:33:56.846Z,2210.62
2022-11-18T13:34:56.834Z,2306.25
2022-11-18T13:35:56.956Z,2221.88
2022-11-18T13:36:56.833Z,2058.75
2022-11-18T13:37:56.814Z,2086.88
2022-11-18T13:38:56.794Z,2103.75
2022-11-18T13:39:56.776Z,2109.38
2022-11-18T13:40:56.776Z,2098.12
2022-11-18T13:41:56.754Z,1794.38
2022-11-18T13:42:56.768Z,1743.75
2022-11-18T13:43:56.736Z,1856.25
2022-11-18T13:44:56.719Z,1929.38
2022-11-18T13:45:56.708Z,1411.88
2022-11-18T13:46:56.697Z,905.62
2022-11-18T13:47:56.698Z,933.75
2022-11-18T13:48:56.677Z,1063.12
2022-11-18T13:49:56.679Z,1771.88
2022-11-18T13:50:56.660Z,1721.25
2022-11-18T13:51:56.652Z,1710.00
2022-11-18T13:52:56.649Z,1625.62
2022-11-18T13:53:56.631Z,1496.25
2022-11-18T13:54:56.610Z,1530.00
2022-11-18T13:55:56.610Z,1468.12
2022-11-18T13:56:56.602Z,1226.25
2022-11-18T13:57:56.582Z,1209.38
2022-11-18T13:59:17.523Z,1091.25
2022-11-18T13:59:57.555Z,984.38
2022-11-18T14:00:56.578Z,883.12
2022-11-18T14:01:56.555Z,680.62
2022-11-18T14:02:56.540Z,579.38
2022-11-18T14:03:56.507Z,500.62
2022-11-18T14:04:56.505Z,478.12
2022-11-18T14:05:56.485Z,450.00
2022-11-18T14:06:56.508Z,421.88
2022-11-18T14:07:56.477Z,410.62
2022-11-18T14:08:56.478Z,438.75
2022-11-18T14:09:56.448Z,405.00
2022-11-18T14:10:56.433Z,343.12
2022-11-18T14:11:56.436Z,286.88
2022-11-18T14:12:56.418Z,253.12
2022-11-18T14:13:56.398Z,241.88
2022-11-18T14:14:56.389Z,230.62
2022-11-18T14:15:56.379Z,213.75
2022-11-18T14:16:56.371Z,202.50
2022-11-18T14:17:56.369Z,185.62
2022-11-18T14:18:56.339Z,174.38
2022-11-18T14:19:56.356Z,157.50
2022-11-18T14:20:56.338Z,151.88
2022-11-18T14:21:56.316Z,146.25
2022-11-18T14:22:56.312Z,135.00
2022-11-18T14:23:56.315Z,123.75
2022-11-18T14:24:56.274Z,123.75
2022-11-18T14:25:56.283Z,118.12
2022-11-18T14:26:56.254Z,118.12
2022-11-18T14:27:56.253Z,112.50
2022-11-18T14:28:56.237Z,106.88
2022-11-18T14:29:56.225Z,106.88
2022-11-18T14:30:56.210Z,106.88
2022-11-18T14:31:56.222Z,101.25
2022-11-18T14:32:56.196Z,101.25
2022-11-18T14:33:56.184Z,101.25
2022-11-18T14:34:56.166Z,101.25
2022-11-18T14:35:56.165Z,106.88
2022-11-18T14:36:56.137Z,106.88
2022-11-18T14:38:04.643Z,112.50
2022-11-18T14:39:25.052Z,112.50
2022-11-18T14:39:57.121Z,112.50
2022-11-18T14:40:56.098Z,112.50
2022-11-18T14:41:56.092Z,112.50
2022-11-18T14:42:56.097Z,106.88
2022-11-18T14:43:56.067Z,106.88
2022-11-18T14:44:56.062Z,106.88
2022-11-18T14:45:56.047Z,112.50
2022-11-18T14:46:56.038Z,112.50
2022-11-18T14:47:56.164Z,112.50
2022-11-18T14:48:56.037Z,118.12
2022-11-18T14:49:56.010Z,123.75
2022-11-18T14:50:55.990Z,123.75
2022-11-18T14:51:55.981Z,123.75
2022-11-18T14:52:55.961Z,123.75
2022-11-18T14:53:55.980Z,123.75
2022-11-18T14:54:55.964Z,118.12
2022-11-18T14:55:56.001Z,106.88
2022-11-18T14:56:55.955Z,95.62
2022-11-18T14:57:55.961Z,90.00
2022-11-18T14:58:55.904Z,84.38
2022-11-18T14:59:55.901Z,78.75
2022-11-18T15:00:55.970Z,78.75
2022-11-18T15:01:55.929Z,73.12
2022-11-18T15:02:55.971Z,67.50
2022-11-18T15:03:55.873Z,61.88
2022-11-18T15:04:55.844Z,56.25
2022-11-18T15:05:55.893Z,50.62
2022-11-18T15:06:55.875Z,45.00
2022-11-18T15:07:55.889Z,39.38
2022-11-18T15:08:55.806Z,33.75
2022-11-18T15:09:55.777Z,33.75
2022-11-18T15:10:55.842Z,33.75
2022-11-18T15:11:55.824Z,39.38
2022-11-18T15:12:55.742Z,39.38
2022-11-18T15:13:55.935Z,39.38
2022-11-18T15:14:55.724Z,39.38
2022-11-18T15:15:55.715Z,39.38
2022-11-18T15:16:55.707Z,39.38
2022-11-18T15:17:55.722Z,33.75
2022-11-18T15:18:55.687Z,33.75
2022-11-18T15:19:55.683Z,28.12
2022-11-18T15:20:55.675Z,22.50
2022-11-18T15:21:55.649Z,16.88
2022-11-18T15:22:55.640Z,16.88
2022-11-18T15:23:55.642Z,11.25
2022-11-18T15:24:55.606Z,11.25
2022-11-18T15:25:55.599Z,11.25
2022-11-18T15:26:55.590Z,11.25
2022-11-18T15:27:55.587Z,5.62
2022-11-18T15:28:55.579Z,5.62
2022-11-18T15:30:00.490Z,5.62
2022-11-18T15:30:56.539Z,5.62
2022-11-18T15:31:55.538Z,5.62
2022-11-18T15:32:55.527Z,5.62
2022-11-18T15:33:55.519Z,5.62
2022-11-18T15:34:55.528Z,5.62
2022-11-18T15:35:55.498Z,5.62
2022-11-18T15:36:55.497Z,5.62
2022-11-18T15:37:55.472Z,5.62
2022-11-18T15:38:55.501Z,5.62
2022-11-18T15:39:55.450Z,5.62
2022-11-18T15:40:55.430Z,5.62
2022-11-18T15:41:55.432Z,5.62
2022-11-18T15:42:55.418Z,5.62
2022-11-18T15:43:55.421Z,5.62
2022-11-18T15:44:55.424Z,5.62
2022-11-18T15:45:56.929Z,5.62
2022-11-18T15:46:55.372Z,5.62
2022-11-18T15:47:55.364Z,0.00
2022-11-18T15:48:55.389Z,0.00
2022-11-18T15:49:55.345Z,0.00
2022-11-18T15:50:55.330Z,0.00
2022-11-18T15:51:55.315Z,0.00
2022-11-18T15:52:55.312Z,0.00
2022-11-18T15:53:55.384Z,0.00
2022-11-18T15:54:55.287Z,0.00
2022-11-18T15:55:55.274Z,0.00
2022-11-18T15:56:55.260Z,0.00
2022-11-18T15:57:55.249Z,0.00
2022-11-18T15:58:56.770Z,0.00
2022-11-18T15:59:55.247Z,0.00
2022-11-18T16:00:55.274Z,0.00
2022-11-18T16:01:55.264Z,0.00
2022-11-18T16:02:55.201Z,0.00
2022-11-18T16:03:55.178Z,0.00
2022-11-18T16:04:55.183Z,0.00
2022-11-18T16:05:55.166Z,0.00
2022-11-18T16:06:55.238Z,0.00
2022-11-18T16:07:55.322Z,0.00
2022-11-18T16:08:59.650Z,0.00
2022-11-18T16:09:56.125Z,0.00
2022-11-18T16:10:55.110Z,0.00
2022-11-18T16:11:55.097Z,0.00
2022-11-18T16:12:55.077Z,0.00
2022-11-18T16:13:55.079Z,0.00
2022-11-18T16:14:55.087Z,0.00
2022-11-18T16:15:55.049Z,0.00
2022-11-18T16:16:55.066Z,0.00
2022-11-18T16:17:55.076Z,0.00
2022-11-18T16:18:55.042Z,0.00
2022-11-18T16:19:55.028Z,0.00
2022-11-18T16:20:54.996Z,0.00
2022-11-18T16:21:54.992Z,0.00
2022-11-18T16:22:54.978Z,0.00
2022-11-18T16:23:54.972Z,0.00
2022-11-18T16:24:54.960Z,0.00
2022-11-18T16:25:54.940Z,0.00
2022-11-18T16:26:54.940Z,0.00
2022-11-18T16:27:54.910Z,0.00
2022-11-18T16:28:54.915Z,0.00
2022-11-18T16:29:54.931Z,0.00
2022-11-18T16:30:54.884Z,0.00
2022-11-18T16:31:55.100Z,0.00
2022-11-18T16:32:54.870Z,0.00
2022-11-18T16:33:54.842Z,0.00
2022-11-18T16:34:59.879Z,0.00
2022-11-18T16:35:55.882Z,0.00
2022-11-18T16:36:54.824Z,0.00
2022-11-18T16:37:54.800Z,0.00
2022-11-18T16:38:54.792Z,0.00
2022-11-18T16:39:54.810Z,0.00
2022-11-18T16:40:54.781Z,0.00
2022-11-18T16:41:54.771Z,0.00
2022-11-18T16:42:54.754Z,0.00
2022-11-18T16:43:54.744Z,0.00
2022-11-18T16:44:54.873Z,0.00
2022-11-18T16:45:54.715Z,0.00
2022-11-18T16:46:54.716Z,0.00
2022-11-18T16:47:54.717Z,0.00
2022-11-18T16:48:54.684Z,0.00
2022-11-18T16:49:54.685Z,0.00
2022-11-18T16:50:54.696Z,0.00
2022-11-18T16:51:54.644Z,0.00
2022-11-18T16:52:54.645Z,0.00
2022-11-18T16:53:54.638Z,0.00
2022-11-18T16:54:54.637Z,0.00
2022-11-18T16:55:54.605Z,0.00
2022-11-18T16:56:54.595Z,0.00
2022-11-18T16:57:54.587Z,0.00
2022-11-18T16:58:54.580Z,0.00
2022-11-18T16:59:54.606Z,0.00
2022-11-18T17:01:18.567Z,0.00
2022-11-18T17:01:55.626Z,0.00
2022-11-18T17:02:54.673Z,0.00
2022-11-18T17:03:54.525Z,0.00
2022-11-18T17:04:54.526Z,0.00
2022-11-18T17:05:54.504Z,0.00
2022-11-18T17:06:54.509Z,0.00
2022-11-18T17:07:54.512Z,0.00
2022-11-18T17:08:54.466Z,0.00
2022-11-18T17:09:54.460Z,0.00
2022-11-18T17:10:54.448Z,0.00
2022-11-18T17:11:54.430Z,0.00
2022-11-18T17:12:54.419Z,0.00
2022-11-18T17:13:58.054Z,0.00
2022-11-18T17:14:54.468Z,0.00
2022-11-18T17:15:54.391Z,0.00
2022-11-18T17:16:54.379Z,0.00
2022-11-18T17:17:54.368Z,0.00
2022-11-18T17:18:54.402Z,0.00
2022-11-18T17:19:54.369Z,0.00
2022-11-18T17:20:54.339Z,0.00
2022-11-18T17:21:54.330Z,0.00
2022-11-18T17:22:54.317Z,0.00
2022-11-18T17:23:54.302Z,0.00
2022-11-18T17:24:54.294Z,0.00
2022-11-18T17:25:54.280Z,0.00
2022-11-18T17:26:54.271Z,0.00
2022-11-18T17:27:54.269Z,0.00
2022-11-18T17:28:54.260Z,0.00
2022-11-18T17:29:54.264Z,0.00
2022-11-18T17:30:54.221Z,0.00
2022-11-18T17:31:54.213Z,0.00
2022-11-18T17:32:54.211Z,0.00
2022-11-18T17:33:54.191Z,0.00
2022-11-18T17:34:54.195Z,0.00
2022-11-18T17:35:54.226Z,0.00
2022-11-18T17:36:54.153Z,0.00
2022-11-18T17:37:54.160Z,0.00
2022-11-18T17:38:54.133Z,0.00
2022-11-18T17:39:54.145Z,0.00
2022-11-18T17:40:54.113Z,0.00
2022-11-18T17:41:54.103Z,0.00
2022-11-18T17:42:54.113Z,0.00
2022-11-18T17:43:54.092Z,0.00
2022-11-18T17:44:54.083Z,0.00
2022-11-18T17:45:54.056Z,0.00
2022-11-18T17:46:54.120Z,0.00
2022-11-18T17:47:54.043Z,0.00
2022-11-18T17:48:54.032Z,0.00
2022-11-18T17:49:54.025Z,0.00
2022-11-18T17:50:54.004Z,0.00
2022-11-18T17:51:54.005Z,0.00
2022-11-18T17:52:53.995Z,0.00
2022-11-18T17:53:53.965Z,0.00
2022-11-18T17:54:54.042Z,0.00
2022-11-18T17:55:53.953Z,0.00
2022-11-18T17:56:53.941Z,0.00
2022-11-18T17:57:53.926Z,0.00
2022-11-18T17:58:53.906Z,0.00
2022-11-18T17:59:53.915Z,0.00
2022-11-18T18:00:54.038Z,0.00
2022-11-18T18:01:58.867Z,0.00